Time;durP1;ratioP1;P1;durP2;ratioP2;P2;SDS_P1;SDS_P2;PMS_P1;PMS_P2;Temp;Humidity;BMP_temperature;BMP_pressure;BME280_temperature;BME280_humidity;BME280_pressure;Samples;Min_cycle;Max_cycle;Signal;HPM_P1;HPM_P2
2024/04/16 00:00:23;;;;;;;3.80;1.63;;;11.20;71.30;;;;;;5485000;26;20039;-40
2024/04/16 00:02:48;;;;;;;4.60;1.70;;;11.20;71.30;;;;;;5473067;26;19991;-39
2024/04/16 00:05:15;;;;;;;3.47;1.63;;;11.20;71.30;;;;;;5474445;26;20069;-40
2024/04/16 00:07:41;;;;;;;4.78;1.50;;;11.20;71.40;;;;;;5464329;26;20002;-39
2024/04/16 00:10:07;;;;;;;2.85;1.42;;;11.20;71.30;;;;;;5468301;26;20013;-40
2024/04/16 00:12:32;;;;;;;3.97;1.52;;;11.20;71.40;;;;;;5487394;26;20350;-40
2024/04/16 00:15:18;;;;;;;4.70;1.50;;;11.10;71.30;;;;;;5467330;26;20011;-40
2024/04/16 00:17:45;;;;;;;4.50;1.58;;;11.20;72.00;;;;;;5426076;26;20035;-39
2024/04/16 00:20:11;;;;;;;2.90;1.60;;;11.10;71.30;;;;;;5455450;26;20003;-40
2024/04/16 00:22:37;;;;;;;4.03;1.60;;;11.10;71.30;;;;;;5472190;26;19994;-39
2024/04/16 00:25:03;;;;;;;3.88;1.70;;;11.10;71.30;;;;;;5483057;26;20017;-40
2024/04/16 00:27:30;;;;;;;4.95;2.33;;;11.10;71.40;;;;;;5460785;26;20222;-40
2024/04/16 00:29:59;;;;;;;3.38;1.70;;;11.10;71.40;;;;;;5470137;26;20013;-40
2024/04/16 00:32:25;;;;;;;5.97;1.70;;;11.10;71.40;;;;;;5476084;26;20364;-41
2024/04/16 00:34:51;;;;;;;5.50;1.60;;;11.00;71.30;;;;;;5456362;26;20044;-40
2024/04/16 00:37:16;;;;;;;4.43;1.63;;;11.10;71.40;;;;;;5461892;26;20054;-40
2024/04/16 00:39:42;;;;;;;3.45;1.40;;;11.10;71.40;;;;;;5471821;26;19994;-40
2024/04/16 00:42:08;;;;;;;2.83;1.50;;;11.00;71.40;;;;;;5477494;26;20026;-40
2024/04/16 00:44:34;;;;;;;4.13;1.60;;;11.00;71.40;;;;;;5477397;26;20342;-40
2024/04/16 00:47:00;;;;;;;4.18;2.15;;;11.00;71.40;;;;;;5475875;26;20048;-40
2024/04/16 00:49:26;;;;;;;3.95;1.60;;;11.00;71.40;;;;;;5456648;26;20025;-40
2024/04/16 00:51:53;;;;;;;3.47;1.50;;;11.00;71.40;;;;;;5454055;26;20730;-40
2024/04/16 00:54:20;;;;;;;3.63;1.45;;;11.10;71.50;;;;;;5470706;26;19998;-40
2024/04/16 00:56:46;;;;;;;2.15;1.40;;;11.00;71.40;;;;;;5484772;26;20030;-40
2024/04/16 00:59:13;;;;;;;4.43;1.50;;;11.00;71.40;;;;;;5476759;26;19994;-39
2024/04/16 01:01:39;;;;;;;4.72;1.80;;;11.00;71.40;;;;;;5488264;26;20038;-40
2024/04/16 01:04:06;;;;;;;3.83;1.60;;;11.00;71.40;;;;;;5478036;26;19999;-39
2024/04/16 01:06:32;;;;;;;4.75;1.50;;;11.00;71.40;;;;;;5476763;26;20252;-39
2024/04/16 01:08:58;;;;;;;3.85;1.67;;;11.00;71.40;;;;;;5458362;26;19998;-39
2024/04/16 01:11:25;;;;;;;2.22;1.30;;;11.00;71.40;;;;;;5465288;26;19999;-40
2024/04/16 01:13:52;;;;;;;2.83;1.40;;;11.00;71.40;;;;;;5475956;26;20448;-39
2024/04/16 01:16:17;;;;;;;3.70;1.60;;;11.00;71.40;;;;;;5466888;26;19994;-40
2024/04/16 01:18:43;;;;;;;2.25;1.33;;;11.00;71.40;;;;;;5487245;26;20064;-39
2024/04/16 01:21:09;;;;;;;1.85;1.40;;;11.00;71.40;;;;;;5475978;26;20030;-40
2024/04/16 01:23:35;;;;;;;2.03;1.30;;;11.00;71.40;;;;;;5481263;26;19998;-40
2024/04/16 01:26:01;;;;;;;2.22;1.35;;;11.00;71.40;;;;;;5466657;26;19999;-40
2024/04/16 01:28:26;;;;;;;3.17;1.50;;;11.00;71.40;;;;;;5471279;26;20002;-41
2024/04/16 01:30:52;;;;;;;4.07;1.58;;;11.00;71.40;;;;;;5472870;26;20045;-40
2024/04/16 01:33:18;;;;;;;2.95;1.45;;;11.00;71.40;;;;;;5451992;26;20027;-41
2024/04/16 01:35:44;;;;;;;1.98;1.30;;;11.00;71.40;;;;;;5482615;26;20011;-40
2024/04/16 01:38:09;;;;;;;3.90;1.52;;;11.10;71.40;;;;;;5497256;26;20021;-39
2024/04/16 01:40:35;;;;;;;3.47;1.42;;;11.00;71.40;;;;;;5477925;26;20049;-40
2024/04/16 01:43:01;;;;;;;4.70;1.60;;;11.00;71.40;;;;;;5478420;26;20051;-39
2024/04/16 01:45:27;;;;;;;2.70;1.50;;;11.00;71.40;;;;;;5463652;26;19999;-40
2024/04/16 01:47:52;;;;;;;4.50;1.33;;;11.00;71.40;;;;;;5470825;26;20481;-39
2024/04/16 01:50:18;;;;;;;3.78;1.58;;;11.00;71.40;;;;;;5482769;26;19998;-39
2024/04/16 01:52:44;;;;;;;3.90;1.50;;;11.00;71.40;;;;;;5487983;26;20071;-39
2024/04/16 01:55:10;;;;;;;3.80;1.45;;;11.00;71.40;;;;;;5488931;26;20013;-39
2024/04/16 01:57:35;;;;;;;3.05;1.60;;;11.00;71.40;;;;;;5479431;26;20426;-40
2024/04/16 02:00:03;;;;;;;3.38;1.50;;;11.00;71.40;;;;;;5485748;26;20588;-40
2024/04/16 02:02:37;;;;;;;3.42;1.42;;;11.00;71.40;;;;;;5464781;26;20017;-41
2024/04/16 02:05:03;;;;;;;2.08;1.42;;;11.00;71.40;;;;;;5480536;26;20453;-41
2024/04/16 02:07:30;;;;;;;3.47;1.50;;;11.00;71.50;;;;;;5462863;26;20043;-43
2024/04/16 02:09:57;;;;;;;2.65;1.20;;;11.00;71.50;;;;;;5478293;26;20451;-41
2024/04/16 02:12:23;;;;;;;2.38;1.30;;;11.00;71.50;;;;;;5487130;26;20012;-42
2024/04/16 02:14:51;;;;;;;2.05;1.33;;;11.00;71.40;;;;;;5456039;26;19999;-41
2024/04/16 02:17:18;;;;;;;1.95;1.23;;;11.00;71.40;;;;;;5470447;26;20165;-40
2024/04/16 02:19:44;;;;;;;2.60;1.30;;;11.00;71.50;;;;;;5455404;26;20056;-41
2024/04/16 02:22:10;;;;;;;2.17;1.20;;;11.00;71.50;;;;;;5457918;26;20003;-41
2024/04/16 02:24:36;;;;;;;2.88;1.27;;;11.00;71.50;;;;;;5458398;26;20006;-41
2024/04/16 02:27:02;;;;;;;2.83;1.42;;;11.00;71.50;;;;;;5457657;26;20006;-41
2024/04/16 02:29:28;;;;;;;2.45;1.50;;;11.00;71.50;;;;;;5480669;26;20003;-40
2024/04/16 02:31:54;;;;;;;2.13;1.25;;;11.00;71.50;;;;;;5486809;26;20047;-40
2024/04/16 02:34:20;;;;;;;2.38;1.30;;;11.00;71.50;;;;;;5479493;26;20002;-39
2024/04/16 02:36:46;;;;;;;2.00;1.27;;;11.00;71.50;;;;;;5471756;26;20011;-39
2024/04/16 02:39:12;;;;;;;3.25;1.50;;;11.00;71.50;;;;;;5476663;26;19999;-40
2024/04/16 02:41:37;;;;;;;1.92;1.20;;;11.00;71.40;;;;;;5461264;26;20415;-40
2024/04/16 02:44:03;;;;;;;1.10;1.00;;;11.00;71.50;;;;;;5484322;26;20082;-40
2024/04/16 02:46:29;;;;;;;3.92;1.35;;;11.00;71.50;;;;;;5488771;26;20013;-40
2024/04/16 02:48:55;;;;;;;1.80;1.30;;;11.00;71.50;;;;;;5470786;26;20050;-39
2024/04/16 02:51:21;;;;;;;2.65;1.30;;;11.00;71.50;;;;;;5488166;26;20449;-39
2024/04/16 02:53:47;;;;;;;1.40;1.17;;;11.00;71.50;;;;;;5482330;26;20003;-39
2024/04/16 02:56:13;;;;;;;2.38;1.30;;;11.00;71.50;;;;;;5477275;26;20552;-40
2024/04/16 02:58:39;;;;;;;2.97;1.20;;;11.00;71.50;;;;;;5481000;26;19998;-40
2024/04/16 03:01:08;;;;;;;1.75;1.30;;;11.00;71.50;;;;;;5462347;26;19999;-40
2024/04/16 03:03:35;;;;;;;1.92;1.17;;;11.00;71.50;;;;;;5461961;26;19999;-40
2024/04/16 03:06:01;;;;;;;1.13;1.00;;;11.00;71.50;;;;;;5460913;26;20002;-40
2024/04/16 03:08:27;;;;;;;1.75;1.10;;;11.00;71.50;;;;;;5460465;26;20368;-41
2024/04/16 03:10:57;;;;;;;1.17;1.00;;;11.00;72.10;;;;;;5470452;26;20003;-40
2024/04/16 03:13:23;;;;;;;1.58;1.05;;;11.00;71.50;;;;;;5435485;26;20383;-40
2024/04/16 03:15:49;;;;;;;1.08;1.00;;;11.00;71.50;;;;;;5462503;26;20013;-41
2024/04/16 03:18:14;;;;;;;0.95;0.90;;;10.90;71.50;;;;;;5458677;26;20006;-41
2024/04/16 03:20:40;;;;;;;1.05;1.05;;;11.00;71.60;;;;;;5456305;26;20542;-40
2024/04/16 03:23:06;;;;;;;0.90;0.90;;;10.90;71.60;;;;;;5483041;26;19998;-41
2024/04/16 03:25:40;;;;;;;0.90;0.90;;;10.90;71.60;;;;;;5457162;26;20010;-40
2024/04/16 03:28:06;;;;;;;1.50;1.20;;;10.90;71.60;;;;;;5459378;26;20490;-41
2024/04/16 03:30:31;;;;;;;0.80;0.80;;;10.90;71.60;;;;;;5463135;26;20009;-40
2024/04/16 03:32:57;;;;;;;1.25;1.10;;;10.90;71.60;;;;;;5461523;26;20013;-41
2024/04/16 03:35:23;;;;;;;1.13;1.00;;;10.90;71.70;;;;;;5468679;26;19998;-41
2024/04/16 03:37:49;;;;;;;1.42;1.00;;;10.80;71.60;;;;;;5466552;26;20021;-40
2024/04/16 03:40:14;;;;;;;2.05;1.00;;;10.90;71.70;;;;;;5462105;26;19994;-40
2024/04/16 03:42:40;;;;;;;1.38;1.00;;;10.80;71.60;;;;;;5477030;26;20041;-40
2024/04/16 03:45:06;;;;;;;1.13;1.00;;;10.80;71.70;;;;;;5474992;26;20044;-41
2024/04/16 03:47:32;;;;;;;1.23;1.00;;;10.80;71.70;;;;;;5475545;26;19999;-42
2024/04/16 03:49:58;;;;;;;1.10;1.00;;;10.80;72.30;;;;;;5472737;26;19998;-41
2024/04/16 03:52:25;;;;;;;1.05;0.95;;;10.80;71.70;;;;;;5478778;26;19998;-40
2024/04/16 03:54:51;;;;;;;1.20;0.90;;;10.80;71.70;;;;;;5478345;26;20018;-40
2024/04/16 03:57:17;;;;;;;1.17;1.00;;;10.80;71.70;;;;;;5461002;26;20395;-41
2024/04/16 04:02:27;;;;;;;0.90;0.90;;;10.80;71.70;;;;;;5488398;26;20012;-43
2024/04/16 04:04:53;;;;;;;1.50;1.10;;;10.70;71.70;;;;;;5459654;26;19998;-39
2024/04/16 04:07:19;;;;;;;1.27;0.88;;;10.70;71.70;;;;;;5471734;26;19999;-40
2024/04/16 04:09:47;;;;;;;1.17;0.90;;;10.70;71.70;;;;;;5463275;26;20018;-40
2024/04/16 04:12:13;;;;;;;1.77;1.00;;;10.70;71.70;;;;;;5460714;26;19999;-40
2024/04/16 04:14:39;;;;;;;0.98;0.98;;;10.70;71.80;;;;;;5459705;26;20522;-41
2024/04/16 04:17:05;;;;;;;1.60;1.00;;;10.70;71.80;;;;;;5478110;26;20013;-40
2024/04/16 04:19:31;;;;;;;1.23;1.00;;;10.70;71.80;;;;;;5457647;26;19995;-40
2024/04/16 04:21:58;;;;;;;1.20;1.10;;;10.70;71.80;;;;;;5466632;26;20146;-40
2024/04/16 04:24:24;;;;;;;0.90;0.90;;;10.70;71.80;;;;;;5475776;26;20028;-40
2024/04/16 04:26:49;;;;;;;1.00;1.00;;;10.70;71.80;;;;;;5480304;26;20014;-40
2024/04/16 04:29:15;;;;;;;1.20;1.10;;;10.70;71.80;;;;;;5477130;26;20104;-41
2024/04/16 04:31:41;;;;;;;1.70;1.13;;;10.70;71.80;;;;;;5473542;26;20055;-40
2024/04/16 04:34:07;;;;;;;1.13;1.08;;;10.70;71.80;;;;;;5465060;26;20455;-39
2024/04/16 04:36:33;;;;;;;1.38;1.20;;;10.60;71.80;;;;;;5468365;26;20002;-40
2024/04/16 04:38:58;;;;;;;1.20;1.10;;;10.70;71.90;;;;;;5464086;26;19990;-41
2024/04/16 04:41:24;;;;;;;1.35;1.05;;;10.60;71.90;;;;;;5481417;26;20491;-40
2024/04/16 04:43:51;;;;;;;1.30;1.20;;;10.60;71.90;;;;;;5457470;26;19999;-40
2024/04/16 04:46:18;;;;;;;1.10;1.10;;;10.60;72.00;;;;;;5484863;25;20010;-39
2024/04/16 04:48:44;;;;;;;1.10;1.10;;;10.60;72.00;;;;;;5456681;26;20002;-40
2024/04/16 04:51:10;;;;;;;1.30;0.95;;;10.60;72.00;;;;;;5462426;26;20008;-40
2024/04/16 04:53:37;;;;;;;1.15;1.00;;;10.60;72.00;;;;;;5484455;26;19998;-40
2024/04/16 04:56:03;;;;;;;2.47;1.20;;;10.60;72.00;;;;;;5481209;26;20010;-41
2024/04/16 04:58:29;;;;;;;1.55;1.10;;;10.60;72.00;;;;;;5466431;26;20527;-40
2024/04/16 05:00:55;;;;;;;2.20;1.20;;;10.60;72.00;;;;;;5482269;26;19999;-41
2024/04/16 05:03:21;;;;;;;1.70;1.20;;;10.50;72.00;;;;;;5476824;26;20454;-42
2024/04/16 05:05:47;;;;;;;1.33;1.10;;;10.50;72.00;;;;;;5490189;26;20010;-41
2024/04/16 05:08:13;;;;;;;1.45;1.17;;;10.50;72.00;;;;;;5473112;26;20013;-41
2024/04/16 05:10:39;;;;;;;1.70;1.20;;;10.50;72.10;;;;;;5481767;26;19999;-40
2024/04/16 05:13:04;;;;;;;1.38;1.20;;;10.50;72.00;;;;;;5489106;26;20010;-40
2024/04/16 05:15:30;;;;;;;1.77;1.35;;;10.50;72.00;;;;;;5458720;26;20007;-42
2024/04/16 05:17:56;;;;;;;3.80;1.50;;;10.50;72.10;;;;;;5482745;26;19994;-39
2024/04/16 05:20:22;;;;;;;1.77;1.20;;;10.50;72.10;;;;;;5458969;26;19999;-41
2024/04/16 05:22:49;;;;;;;1.45;1.33;;;10.50;72.10;;;;;;5474598;26;19990;-40
2024/04/16 05:25:15;;;;;;;2.03;1.20;;;10.50;72.10;;;;;;5470425;26;20013;-40
2024/04/16 05:27:41;;;;;;;1.40;1.30;;;10.50;72.20;;;;;;5476639;26;19995;-40
2024/04/16 05:30:08;;;;;;;2.03;1.40;;;10.50;72.20;;;;;;5465589;26;20334;-40
2024/04/16 05:32:34;;;;;;;2.88;1.30;;;10.50;72.20;;;;;;5483493;26;20416;-41
2024/04/16 05:35:00;;;;;;;1.58;1.20;;;10.50;72.20;;;;;;5477797;26;19998;-40
2024/04/16 05:37:26;;;;;;;1.42;1.20;;;10.50;72.20;;;;;;5474873;26;20075;-40
2024/04/16 05:39:51;;;;;;;1.40;1.23;;;10.50;72.20;;;;;;5461501;26;20038;-40
2024/04/16 05:42:17;;;;;;;1.98;1.17;;;10.50;72.20;;;;;;5484116;26;20009;-41
2024/04/16 05:44:43;;;;;;;1.70;1.30;;;10.50;72.20;;;;;;5486068;26;19998;-41
2024/04/16 05:47:09;;;;;;;1.98;1.30;;;10.50;72.20;;;;;;5484540;26;19998;-40
2024/04/16 05:49:34;;;;;;;1.20;1.10;;;10.50;72.30;;;;;;5472557;26;20012;-40
2024/04/16 05:52:00;;;;;;;1.25;1.15;;;10.50;72.30;;;;;;5475790;26;20010;-41
2024/04/16 05:54:27;;;;;;;1.58;1.10;;;10.50;72.30;;;;;;5477914;26;20003;-40
2024/04/16 05:56:53;;;;;;;1.40;1.30;;;10.50;72.30;;;;;;5471295;26;20880;-40
2024/04/16 05:59:19;;;;;;;1.60;1.20;;;10.50;72.30;;;;;;5483335;26;20003;-40
2024/04/16 06:01:45;;;;;;;1.17;1.08;;;10.50;72.30;;;;;;5473563;26;20034;-40
2024/04/16 06:04:11;;;;;;;2.08;1.23;;;10.50;72.40;;;;;;5470371;26;20431;-47
2024/04/16 06:06:37;;;;;;;1.23;1.10;;;10.50;72.40;;;;;;5478590;26;20010;-41
2024/04/16 06:09:04;;;;;;;1.60;1.10;;;10.50;72.40;;;;;;5473521;26;20019;-42
2024/04/16 06:11:31;;;;;;;1.45;1.13;;;10.50;72.40;;;;;;5482360;26;20359;-40
2024/04/16 06:13:59;;;;;;;1.30;1.10;;;10.50;72.40;;;;;;5474691;26;20003;-41
2024/04/16 06:16:26;;;;;;;1.17;1.10;;;10.50;72.40;;;;;;5479847;26;20002;-40
2024/04/16 06:18:52;;;;;;;1.63;1.13;;;10.50;72.40;;;;;;5473602;26;20073;-41
2024/04/16 06:21:18;;;;;;;1.20;1.10;;;10.50;72.40;;;;;;5481933;26;20012;-42
2024/04/16 06:23:43;;;;;;;2.17;1.20;;;10.50;72.40;;;;;;5489270;26;19990;-41
2024/04/16 06:26:10;;;;;;;1.60;1.10;;;10.50;72.40;;;;;;5478119;26;19994;-40
2024/04/16 06:28:36;;;;;;;3.17;1.15;;;10.50;72.50;;;;;;5466241;26;20471;-40
2024/04/16 06:31:02;;;;;;;1.40;1.30;;;10.50;72.60;;;;;;5492792;26;20009;-40
2024/04/16 06:33:28;;;;;;;2.33;1.58;;;10.50;72.50;;;;;;5479417;26;19998;-40
2024/04/16 06:35:54;;;;;;;2.08;1.23;;;10.50;72.50;;;;;;5454618;26;20007;-42
2024/04/16 06:38:21;;;;;;;2.00;1.27;;;10.50;72.50;;;;;;5458742;26;20002;-40
2024/04/16 06:40:47;;;;;;;1.20;1.10;;;10.50;72.50;;;;;;5475839;26;19999;-41
2024/04/16 06:43:13;;;;;;;2.40;1.40;;;10.50;72.60;;;;;;5472113;26;20074;-39
2024/04/16 06:45:38;;;;;;;1.42;1.23;;;10.50;72.50;;;;;;5477680;26;20005;-40
2024/04/16 06:48:05;;;;;;;2.42;1.42;;;10.50;72.60;;;;;;5460191;26;19998;-40
2024/04/16 06:50:30;;;;;;;1.92;1.38;;;10.50;72.60;;;;;;5484727;26;20037;-43
2024/04/16 06:52:56;;;;;;;3.45;1.40;;;10.50;72.60;;;;;;5484745;26;20009;-39
2024/04/16 06:55:22;;;;;;;1.30;1.20;;;10.50;72.60;;;;;;5490792;26;19998;-42
2024/04/16 06:57:48;;;;;;;2.25;1.30;;;10.50;72.60;;;;;;5465778;26;20443;-40
2024/04/16 07:00:14;;;;;;;2.65;1.40;;;10.60;72.60;;;;;;5458853;26;20299;-41
2024/04/16 07:02:39;;;;;;;2.70;1.40;;;10.60;72.60;;;;;;5482219;26;20017;-40
2024/04/16 07:05:05;;;;;;;3.45;1.30;;;10.60;72.70;;;;;;5474600;26;19998;-40
2024/04/16 07:07:31;;;;;;;2.25;1.40;;;10.60;72.70;;;;;;5489131;26;19994;-39
2024/04/16 07:09:57;;;;;;;2.33;1.35;;;10.60;72.70;;;;;;5488074;26;20033;-41
2024/04/16 07:12:23;;;;;;;5.03;1.58;;;10.60;72.70;;;;;;5469887;26;19995;-41
2024/04/16 07:14:48;;;;;;;2.33;1.40;;;10.60;72.70;;;;;;5460201;26;20018;-39
2024/04/16 07:17:14;;;;;;;4.82;1.52;;;10.60;72.80;;;;;;5472624;26;20009;-40
2024/04/16 07:19:40;;;;;;;3.17;1.58;;;10.60;72.80;;;;;;5470602;26;20034;-39
2024/04/16 07:22:06;;;;;;;3.08;1.50;;;10.60;72.80;;;;;;5474870;26;20014;-40
2024/04/16 07:24:31;;;;;;;3.15;1.60;;;10.70;72.80;;;;;;5476535;26;20386;-40
2024/04/16 07:26:57;;;;;;;2.67;1.40;;;10.70;72.80;;;;;;5482896;26;20045;-40
2024/04/16 07:29:23;;;;;;;2.17;1.48;;;10.70;72.80;;;;;;5461816;26;20075;-40
2024/04/16 07:31:49;;;;;;;5.18;1.60;;;10.70;72.80;;;;;;5470567;26;20002;-39
2024/04/16 07:34:14;;;;;;;2.08;1.50;;;10.80;72.90;;;;;;5472064;26;20194;-40
2024/04/16 07:36:41;;;;;;;3.28;1.70;;;10.80;72.90;;;;;;5467416;26;20002;-41
2024/04/16 07:39:06;;;;;;;4.47;1.70;;;10.80;72.90;;;;;;5483726;26;20006;-41
2024/04/16 07:41:32;;;;;;;2.35;1.60;;;10.80;72.90;;;;;;5463162;26;19998;-40
2024/04/16 07:43:58;;;;;;;3.42;1.67;;;10.80;72.90;;;;;;5461642;26;20538;-41
2024/04/16 07:46:24;;;;;;;3.20;1.50;;;10.90;72.90;;;;;;5466473;26;20008;-41
2024/04/16 07:48:50;;;;;;;3.28;1.50;;;10.90;72.90;;;;;;5467721;26;20013;-40
2024/04/16 07:51:15;;;;;;;3.30;1.70;;;11.00;72.90;;;;;;5456726;26;20010;-41
2024/04/16 07:53:41;;;;;;;2.85;1.60;;;10.90;72.90;;;;;;5476205;26;20065;-41
2024/04/16 07:56:07;;;;;;;3.40;1.73;;;11.00;72.90;;;;;;5470979;26;20008;-42
2024/04/16 07:58:32;;;;;;;3.15;1.70;;;11.00;72.90;;;;;;5486298;26;20407;-42
2024/04/16 08:00:58;;;;;;;2.10;1.40;;;11.10;73.00;;;;;;5466598;26;20001;-40
2024/04/16 08:03:24;;;;;;;4.13;1.67;;;11.10;73.00;;;;;;5473802;26;20019;-45
2024/04/16 08:05:50;;;;;;;3.38;1.60;;;11.10;73.00;;;;;;5467335;26;20055;-40
2024/04/16 08:08:15;;;;;;;2.50;1.52;;;11.10;73.00;;;;;;5462008;26;20094;-40
2024/04/16 08:10:42;;;;;;;4.10;1.60;;;11.20;73.10;;;;;;5487856;26;20062;-41
2024/04/16 08:13:07;;;;;;;2.58;1.33;;;11.20;73.10;;;;;;5462595;26;20093;-40
2024/04/16 08:15:33;;;;;;;2.42;1.52;;;11.20;73.10;;;;;;5469224;26;20076;-41
2024/04/16 08:17:59;;;;;;;2.65;1.48;;;11.20;73.10;;;;;;5458883;26;20024;-40
2024/04/16 08:20:25;;;;;;;3.47;1.67;;;11.20;73.20;;;;;;5478738;26;20349;-42
2024/04/16 08:22:52;;;;;;;3.95;1.70;;;11.30;73.80;;;;;;5484446;26;20010;-40
2024/04/16 08:25:18;;;;;;;3.97;1.55;;;11.30;73.20;;;;;;5479417;26;20016;-39
2024/04/16 08:27:43;;;;;;;3.38;1.60;;;11.30;73.20;;;;;;5473250;26;19998;-39
2024/04/16 08:30:10;;;;;;;3.53;1.50;;;11.30;73.10;;;;;;5483711;26;19999;-40
2024/04/16 08:32:36;;;;;;;5.38;1.67;;;11.40;73.20;;;;;;5477664;26;20046;-39
2024/04/16 08:35:01;;;;;;;2.85;1.42;;;11.40;73.20;;;;;;5489370;26;20363;-40
2024/04/16 08:37:30;;;;;;;5.65;1.98;;;11.40;73.20;;;;;;5476671;26;20042;-41
2024/04/16 08:39:56;;;;;;;2.97;1.45;;;11.40;73.20;;;;;;5483074;26;20002;-40
2024/04/16 08:42:22;;;;;;;2.15;1.50;;;11.50;73.30;;;;;;5488035;26;19994;-41
2024/04/16 08:44:48;;;;;;;3.17;1.50;;;11.50;73.30;;;;;;5479831;26;20451;-40
2024/04/16 08:47:17;;;;;;;3.95;1.75;;;11.50;73.40;;;;;;5467832;26;20058;-41
2024/04/16 08:49:44;;;;;;;3.60;1.50;;;11.60;73.40;;;;;;5464985;26;20003;-40
2024/04/16 08:52:12;;;;;;;4.47;1.60;;;11.60;73.40;;;;;;5465389;26;20052;-40
2024/04/16 08:54:38;;;;;;;2.08;1.40;;;11.70;73.40;;;;;;5477690;26;20042;-41
2024/04/16 08:57:06;;;;;;;3.40;1.40;;;11.70;73.40;;;;;;5482794;26;20569;-40
2024/04/16 08:59:32;;;;;;;3.13;1.42;;;11.70;73.40;;;;;;5479880;26;19998;-39
2024/04/16 09:01:59;;;;;;;3.20;1.40;;;11.70;73.30;;;;;;5488786;26;20013;-39
2024/04/16 09:04:26;;;;;;;4.20;1.60;;;11.80;73.40;;;;;;5478766;26;20013;-40
2024/04/16 09:06:52;;;;;;;3.80;1.50;;;11.80;73.40;;;;;;5479516;26;20007;-40
2024/04/16 09:09:18;;;;;;;3.00;1.30;;;11.90;73.40;;;;;;5483594;26;20396;-38
2024/04/16 09:11:45;;;;;;;2.67;1.30;;;11.90;73.40;;;;;;5468500;26;20003;-41
2024/04/16 09:14:13;;;;;;;3.53;1.35;;;11.90;73.40;;;;;;5471855;26;20069;-39
2024/04/16 09:16:40;;;;;;;3.13;1.20;;;12.00;73.40;;;;;;5490835;26;20017;-39
2024/04/16 09:19:07;;;;;;;1.83;1.38;;;12.00;73.30;;;;;;5481514;26;20060;-39
2024/04/16 09:21:33;;;;;;;2.92;1.17;;;12.10;73.30;;;;;;5481557;26;20060;-40
2024/04/16 09:24:01;;;;;;;1.75;1.20;;;12.10;73.30;;;;;;5466944;26;20002;-39
2024/04/16 09:26:26;;;;;;;2.38;1.27;;;12.10;73.30;;;;;;5485583;26;20002;-39
2024/04/16 09:28:52;;;;;;;3.22;1.27;;;12.10;73.30;;;;;;5496997;26;20037;-41
2024/04/16 09:31:18;;;;;;;2.67;1.30;;;12.20;73.30;;;;;;5497391;26;20012;-41
2024/04/16 09:33:47;;;;;;;2.20;1.17;;;12.20;73.30;;;;;;5470208;26;20018;-41
2024/04/16 09:36:16;;;;;;;2.17;1.10;;;12.30;73.30;;;;;;5459897;26;20009;-40
2024/04/16 09:38:43;;;;;;;1.85;1.20;;;12.30;73.30;;;;;;5491500;26;19999;-40
2024/04/16 09:41:13;;;;;;;2.80;1.40;;;12.30;73.30;;;;;;5470794;26;20013;-41
2024/04/16 09:43:43;;;;;;;1.77;1.10;;;12.40;73.40;;;;;;5469696;26;19991;-41
2024/04/16 09:46:12;;;;;;;1.92;1.23;;;12.40;73.30;;;;;;5460890;26;19995;-40
2024/04/16 09:48:41;;;;;;;1.95;1.00;;;12.40;73.30;;;;;;5475540;26;19995;-40
2024/04/16 09:51:08;;;;;;;2.75;1.30;;;12.50;73.30;;;;;;5479645;26;19995;-40
2024/04/16 09:53:36;;;;;;;3.08;1.50;;;12.50;73.20;;;;;;5477748;26;20012;-39
2024/04/16 09:56:05;;;;;;;3.33;1.23;;;12.50;73.20;;;;;;5461704;26;20011;-40
2024/04/16 09:58:33;;;;;;;1.55;1.08;;;12.60;73.20;;;;;;5484377;26;19998;-39
2024/04/16 10:01:00;;;;;;;2.88;1.10;;;12.60;73.20;;;;;;5469812;26;19998;-39
2024/04/16 10:03:27;;;;;;;1.48;1.00;;;12.60;73.10;;;;;;5477423;26;20010;-39
2024/04/16 10:05:53;;;;;;;2.50;1.20;;;12.70;73.10;;;;;;5480569;26;20009;-43
2024/04/16 10:08:24;;;;;;;2.65;1.10;;;12.80;73.20;;;;;;5483836;26;20005;-40
2024/04/16 10:10:52;;;;;;;3.60;1.20;;;12.80;73.10;;;;;;5484261;26;20002;-39
2024/04/16 10:13:18;;;;;;;2.38;1.00;;;12.90;73.10;;;;;;5473668;26;20017;-40
2024/04/16 10:15:45;;;;;;;1.05;1.00;;;12.90;73.60;;;;;;5476444;26;19999;-40
2024/04/16 10:18:14;;;;;;;2.15;1.20;;;12.90;73.00;;;;;;5477181;26;20010;-39
2024/04/16 10:20:56;;;;;;;1.17;0.90;;;13.00;73.00;;;;;;5462986;26;20002;-40
2024/04/16 10:23:22;;;;;;;2.70;0.90;;;13.00;73.00;;;;;;5491538;26;20005;-38
2024/04/16 10:25:52;;;;;;;2.35;1.05;;;13.00;72.90;;;;;;5479184;26;19998;-38
2024/04/16 10:28:36;;;;;;;1.73;1.00;;;13.10;72.90;;;;;;5466475;26;20002;-39
2024/04/16 10:31:15;;;;;;;3.13;1.10;;;13.10;72.90;;;;;;5471044;26;20002;-39
2024/04/16 10:33:46;;;;;;;2.22;1.00;;;13.20;72.90;;;;;;5481949;26;19994;-38
2024/04/16 10:36:15;;;;;;;1.58;0.90;;;13.20;72.80;;;;;;5459364;26;20327;-39
2024/04/16 10:38:42;;;;;;;1.42;1.00;;;13.20;72.80;;;;;;5485207;26;19998;-39
2024/04/16 10:41:08;;;;;;;1.63;0.80;;;13.30;72.80;;;;;;5488123;26;20018;-39
2024/04/16 10:43:40;;;;;;;1.00;1.00;;;13.30;72.80;;;;;;5470328;26;20032;-39
2024/04/16 10:46:07;;;;;;;1.77;0.90;;;13.30;72.70;;;;;;5464909;26;20007;-38
2024/04/16 10:48:33;;;;;;;1.58;0.90;;;13.40;72.70;;;;;;5489663;26;20027;-39
2024/04/16 10:50:59;;;;;;;1.60;1.00;;;13.40;72.60;;;;;;5486475;26;20075;-39
2024/04/16 10:53:24;;;;;;;2.50;1.20;;;13.50;72.70;;;;;;5481746;26;19995;-39
2024/04/16 10:55:50;;;;;;;0.80;0.80;;;13.50;72.60;;;;;;5457774;26;20017;-38
2024/04/16 10:58:18;;;;;;;2.15;0.90;;;13.50;72.60;;;;;;5477308;26;20075;-38
2024/04/16 11:00:44;;;;;;;0.95;0.90;;;13.50;72.60;;;;;;5458127;26;19999;-39
2024/04/16 11:03:13;;;;;;;0.88;0.88;;;13.60;72.60;;;;;;5483344;26;20013;-39
2024/04/16 11:05:40;;;;;;;0.88;0.80;;;13.60;72.60;;;;;;5477442;26;20052;-39
2024/04/16 11:08:07;;;;;;;1.85;0.90;;;13.60;72.60;;;;;;5494548;26;20002;-39
2024/04/16 11:10:34;;;;;;;1.27;0.90;;;13.70;72.60;;;;;;5474349;26;20038;-39
2024/04/16 11:13:03;;;;;;;1.02;0.80;;;13.70;72.60;;;;;;5482511;26;20013;-39
2024/04/16 11:15:33;;;;;;;1.23;0.90;;;13.70;72.50;;;;;;5479824;26;20047;-39
2024/04/16 11:17:59;;;;;;;3.00;1.00;;;13.80;72.50;;;;;;5468099;26;19998;-39
2024/04/16 11:20:27;;;;;;;1.30;0.80;;;13.80;72.50;;;;;;5485917;26;20056;-39
2024/04/16 11:22:53;;;;;;;0.85;0.80;;;13.90;72.50;;;;;;5463400;26;20006;-39
2024/04/16 11:25:19;;;;;;;0.95;0.80;;;13.90;72.50;;;;;;5489759;26;19998;-39
2024/04/16 11:27:45;;;;;;;0.80;0.80;;;13.90;72.40;;;;;;5483585;26;20002;-39
2024/04/16 11:30:12;;;;;;;1.50;0.80;;;14.00;72.40;;;;;;5463161;26;20017;-39
2024/04/16 11:32:38;;;;;;;1.05;0.90;;;14.00;72.40;;;;;;5459071;26;20002;-39
2024/04/16 11:35:23;;;;;;;1.25;0.75;;;14.10;72.40;;;;;;5478223;26;19998;-39
2024/04/16 11:37:50;;;;;;;0.70;0.70;;;14.10;72.40;;;;;;5471259;26;19998;-38
2024/04/16 11:40:16;;;;;;;2.10;0.80;;;14.20;72.40;;;;;;5484778;26;20526;-37
2024/04/16 11:42:45;;;;;;;1.35;0.90;;;14.20;72.30;;;;;;5481127;26;20074;-38
2024/04/16 11:45:10;;;;;;;0.90;0.75;;;14.30;72.40;;;;;;5456635;26;20003;-37
2024/04/16 11:47:36;;;;;;;0.93;0.90;;;14.30;72.30;;;;;;5482434;26;20009;-38
2024/04/16 11:50:03;;;;;;;1.20;1.00;;;14.30;72.60;;;;;;5465511;26;20012;-38
2024/04/16 11:52:28;;;;;;;2.40;0.90;;;14.40;72.30;;;;;;5467357;26;19998;-38
2024/04/16 11:54:54;;;;;;;1.02;0.93;;;14.40;72.20;;;;;;5465583;26;20938;-39
2024/04/16 11:57:20;;;;;;;0.80;0.80;;;14.40;72.30;;;;;;5445203;26;20445;-38
2024/04/16 11:59:47;;;;;;;1.02;0.90;;;14.50;72.30;;;;;;5458849;26;20014;-39
2024/04/16 12:02:13;;;;;;;1.48;0.90;;;14.50;72.20;;;;;;5476366;26;20026;-38
2024/04/16 12:04:40;;;;;;;1.40;0.90;;;14.50;72.30;;;;;;5463840;26;20070;-38
2024/04/16 12:07:06;;;;;;;1.85;0.70;;;14.60;72.20;;;;;;5469849;26;20007;-38
2024/04/16 12:09:31;;;;;;;0.70;0.70;;;14.60;72.10;;;;;;5463378;26;20010;-41
2024/04/16 12:11:58;;;;;;;0.73;0.73;;;14.60;72.10;;;;;;5467860;26;20002;-38
2024/04/16 12:14:23;;;;;;;1.30;0.77;;;14.70;72.10;;;;;;5468316;26;20002;-38
2024/04/16 12:16:49;;;;;;;2.28;0.77;;;14.70;72.60;;;;;;5463211;26;19995;-38
2024/04/16 12:19:15;;;;;;;0.70;0.70;;;14.80;72.10;;;;;;5484152;26;20002;-38
2024/04/16 12:21:41;;;;;;;1.02;0.90;;;14.80;72.00;;;;;;5473929;26;19995;-39
2024/04/16 12:24:07;;;;;;;1.58;0.73;;;14.80;71.90;;;;;;5462797;26;19998;-38
2024/04/16 12:26:33;;;;;;;0.90;0.90;;;14.90;71.90;;;;;;5472176;26;20017;-38
2024/04/16 12:28:59;;;;;;;0.77;0.70;;;15.00;71.90;;;;;;5470951;26;19998;-38
2024/04/16 12:31:27;;;;;;;0.90;0.80;;;15.00;71.80;;;;;;5485767;26;20008;-38
2024/04/16 12:33:53;;;;;;;0.80;0.80;;;15.00;71.80;;;;;;5459335;26;19998;-38
2024/04/16 12:36:19;;;;;;;0.73;0.73;;;15.10;71.90;;;;;;5457757;26;20003;-38
2024/04/16 12:38:45;;;;;;;2.92;0.95;;;15.10;71.90;;;;;;5479734;26;19998;-38
2024/04/16 12:41:11;;;;;;;2.20;0.98;;;15.10;71.90;;;;;;5479359;26;20017;-38
2024/04/16 12:43:37;;;;;;;1.00;0.90;;;15.20;71.90;;;;;;5473137;26;20007;-38
2024/04/16 12:46:03;;;;;;;1.60;1.00;;;15.20;71.90;;;;;;5469937;26;20063;-38